Time;durP1;ratioP1;P1;durP2;ratioP2;P2;SDS_P1;SDS_P2;PMS_P1;PMS_P2;Temp;Humidity;BMP_temperature;BMP_pressure;BME280_temperature;BME280_humidity;BME280_pressure;Samples;Min_cycle;Max_cycle;Signal;HPM_P1;HPM_P2
2023/08/04 00:00:07;;;;;;;3.45;0.88;;;;;;;21.75;75.95;100138.63;5054091;27;97145;-68
2023/08/04 00:02:33;;;;;;;1.17;0.70;;;;;;;21.63;76.20;100142.44;5052446;27;96957;-68
2023/08/04 00:05:00;;;;;;;2.22;1.10;;;;;;;21.66;76.29;100150.25;5040089;27;97632;-68
2023/08/04 00:07:26;;;;;;;3.22;0.80;;;;;;;21.81;75.80;100143.44;5045630;27;98990;-68
2023/08/04 00:09:52;;;;;;;2.42;0.75;;;;;;;21.69;76.64;100158.03;5048054;27;98321;-67
2023/08/04 00:12:19;;;;;;;3.42;0.73;;;;;;;21.70;75.92;100155.19;5054108;27;96962;-68
2023/08/04 00:14:48;;;;;;;4.05;1.17;;;;;;;21.90;75.33;100161.44;5054340;27;98922;-69
2023/08/04 00:17:14;;;;;;;0.60;0.60;;;;;;;21.67;76.36;100166.22;5052640;27;98797;-68
2023/08/04 00:19:41;;;;;;;2.58;1.25;;;;;;;21.55;77.23;100174.53;5048708;27;98770;-69
2023/08/04 00:22:08;;;;;;;1.42;0.85;;;;;;;21.60;77.04;100167.75;5045808;27;98632;-68
2023/08/04 00:24:34;;;;;;;6.55;1.15;;;;;;;21.65;77.14;100172.75;5052626;27;99300;-67
2023/08/04 00:27:02;;;;;;;1.27;0.80;;;;;;;21.74;76.82;100177.28;5047003;27;98888;-67
2023/08/04 00:29:28;;;;;;;2.45;1.00;;;;;;;21.72;76.92;100180.13;5051115;27;97611;-67
2023/08/04 00:31:56;;;;;;;3.53;0.90;;;;;;;21.40;78.65;100176.75;5056373;27;97654;-67
2023/08/04 00:34:23;;;;;;;2.17;0.80;;;;;;;21.56;78.32;100179.78;5044677;27;98867;-68
2023/08/04 00:36:49;;;;;;;1.38;1.05;;;;;;;21.81;77.19;100184.66;5047971;27;98746;-68
2023/08/04 00:39:16;;;;;;;4.95;0.95;;;;;;;21.49;78.30;100181.34;5046977;27;97680;-67
2023/08/04 00:41:42;;;;;;;1.17;1.08;;;;;;;21.70;78.08;100178.53;5051760;27;96801;-66
2023/08/04 00:44:09;;;;;;;2.88;0.95;;;;;;;21.70;77.79;100182.09;5052011;27;98986;-68
2023/08/04 00:46:36;;;;;;;2.03;0.82;;;;;;;21.64;78.21;100188.03;5049083;27;98897;-66
2023/08/04 00:49:05;;;;;;;2.10;1.00;;;;;;;21.72;77.80;100188.19;5044480;27;98941;-67
2023/08/04 00:51:32;;;;;;;2.60;1.05;;;;;;;21.77;77.46;100194.00;5055590;27;97047;-66
2023/08/04 00:53:59;;;;;;;1.15;1.00;;;;;;;21.65;78.30;100192.41;5042518;27;99192;-67
2023/08/04 00:56:25;;;;;;;6.53;1.35;;;;;;;21.59;78.67;100194.81;5050374;27;98354;-67
2023/08/04 00:58:52;;;;;;;4.20;1.40;;;;;;;21.64;78.21;100198.78;5045963;27;96809;-67
2023/08/04 01:01:18;;;;;;;3.47;1.20;;;;;;;21.76;78.16;100194.13;5049765;27;96933;-68
2023/08/04 01:03:45;;;;;;;4.32;1.30;;;;;;;21.81;77.64;100191.84;5055889;27;99361;-67
2023/08/04 01:06:23;;;;;;;4.95;1.20;;;;;;;21.77;77.68;100190.44;5043489;27;98784;-68
2023/08/04 01:08:59;;;;;;;3.45;1.52;;;;;;;21.69;78.18;100192.97;5049221;27;96886;-68
2023/08/04 01:11:33;;;;;;;6.05;1.30;;;;;;;21.66;78.67;100188.72;5052917;27;98550;-68
2023/08/04 01:14:02;;;;;;;2.00;1.08;;;;;;;21.82;77.83;100205.19;5047566;27;99183;-67
2023/08/04 01:16:29;;;;;;;3.20;1.10;;;;;;;21.80;77.83;100203.59;5045471;27;101457;-69
2023/08/04 01:18:59;;;;;;;5.72;1.20;;;;;;;21.87;77.49;100210.97;5046505;27;97293;-66
2023/08/04 01:21:27;;;;;;;4.22;1.30;;;;;;;22.09;77.15;100214.44;5044626;27;98637;-69
2023/08/04 01:23:54;;;;;;;8.15;1.50;;;;;;;22.01;77.13;100209.75;5051728;27;102002;-68
2023/08/04 01:26:22;;;;;;;3.08;1.40;;;;;;;22.00;77.20;100212.56;5050906;27;99182;-67
2023/08/04 01:28:50;;;;;;;5.35;1.20;;;;;;;22.06;77.45;100220.94;5044424;27;97190;-69
2023/08/04 01:31:17;;;;;;;5.25;1.55;;;;;;;22.02;77.02;100229.44;5048976;27;98714;-69
2023/08/04 01:33:44;;;;;;;3.75;1.42;;;;;;;22.00;77.17;100239.47;5047046;27;99558;-68
2023/08/04 01:36:10;;;;;;;6.35;1.30;;;;;;;21.90;77.85;100239.44;5047764;27;100888;-68
2023/08/04 01:38:38;;;;;;;3.58;1.30;;;;;;;21.90;77.79;100252.03;5043217;27;96957;-68
2023/08/04 01:41:05;;;;;;;4.80;1.48;;;;;;;21.91;78.02;100259.13;5049497;27;96914;-69
2023/08/04 01:43:32;;;;;;;3.00;1.23;;;;;;;21.99;77.58;100262.03;5057504;27;98904;-67
2023/08/04 01:45:58;;;;;;;1.80;1.30;;;;;;;21.94;77.75;100277.66;5048051;27;99245;-69
2023/08/04 01:48:24;;;;;;;7.47;2.53;;;;;;;21.90;77.83;100276.25;5057695;27;96873;-69
2023/08/04 01:50:51;;;;;;;7.15;2.00;;;;;;;22.01;77.72;100285.09;5051246;27;96978;-67
2023/08/04 01:53:17;;;;;;;5.97;1.77;;;;;;;21.73;78.48;100297.41;5056081;27;99262;-67
2023/08/04 01:55:47;;;;;;;4.13;1.83;;;;;;;21.83;78.58;100309.09;5050838;27;99398;-67
2023/08/04 01:58:14;;;;;;;7.28;1.88;;;;;;;21.60;79.31;100309.41;5054729;27;97067;-67
2023/08/04 02:00:40;;;;;;;4.72;1.90;;;;;;;21.82;78.68;100312.75;5052885;27;96969;-67
2023/08/04 02:03:07;;;;;;;8.57;1.92;;;;;;;21.68;79.15;100320.34;5045839;27;99141;-67
2023/08/04 02:05:33;;;;;;;2.97;1.45;;;;;;;21.75;79.21;100321.50;5046597;27;97847;-67
2023/08/04 02:07:59;;;;;;;5.75;1.52;;;;;;;21.25;80.85;100325.94;5049499;27;96802;-67
2023/08/04 02:10:26;;;;;;;2.97;1.60;;;;;;;21.34;81.55;100327.81;5052957;27;96865;-67
2023/08/04 02:12:53;;;;;;;4.72;1.80;;;;;;;21.54;80.59;100334.13;5053933;27;101450;-67
2023/08/04 02:15:22;;;;;;;6.00;1.95;;;;;;;21.56;80.07;100338.41;5058834;27;99128;-67
2023/08/04 02:17:48;;;;;;;7.53;1.90;;;;;;;21.61;80.20;100340.69;5051837;27;97177;-68
2023/08/04 02:20:15;;;;;;;7.47;1.95;;;;;;;21.51;80.19;100337.09;5055243;27;97248;-67
2023/08/04 02:22:41;;;;;;;10.40;1.95;;;;;;;21.32;81.19;100341.41;5056125;27;98981;-67
2023/08/04 02:25:08;;;;;;;6.65;2.55;;;;;;;21.70;79.58;100340.75;5052130;27;100116;-67
2023/08/04 02:27:34;;;;;;;8.38;2.13;;;;;;;21.83;79.02;100349.41;5056553;27;97531;-67
2023/08/04 02:30:02;;;;;;;7.70;2.08;;;;;;;21.91;78.33;100353.28;5050167;27;96931;-67
2023/08/04 02:32:28;;;;;;;6.38;2.20;;;;;;;22.05;77.62;100352.94;5050007;27;98419;-68
2023/08/04 02:34:55;;;;;;;7.15;2.28;;;;;;;21.64;79.14;100351.19;5053679;27;99364;-68
2023/08/04 02:37:21;;;;;;;7.13;2.17;;;;;;;21.77;78.55;100351.81;5052819;27;96830;-69
2023/08/04 02:39:47;;;;;;;6.82;2.45;;;;;;;21.82;78.05;100349.56;5051501;27;96811;-68
2023/08/04 02:42:14;;;;;;;7.85;2.03;;;;;;;21.73;78.51;100359.28;5050646;27;98661;-68
2023/08/04 02:44:40;;;;;;;7.78;1.90;;;;;;;21.96;77.46;100351.91;5060468;27;99008;-68
2023/08/04 02:47:08;;;;;;;5.30;2.05;;;;;;;21.70;78.63;100356.00;5049218;27;97448;-68
2023/08/04 02:49:36;;;;;;;8.52;2.13;;;;;;;21.64;78.94;100357.41;5047336;27;99045;-67
2023/08/04 02:52:02;;;;;;;5.20;2.30;;;;;;;21.60;79.13;100355.97;5049857;27;99182;-68
2023/08/04 02:54:29;;;;;;;4.18;2.30;;;;;;;21.74;78.12;100352.06;5058351;27;98878;-68
2023/08/04 02:56:55;;;;;;;6.88;1.98;;;;;;;21.76;78.22;100350.09;5051247;27;97167;-68
2023/08/04 02:59:21;;;;;;;5.72;2.28;;;;;;;21.65;78.43;100351.06;5046188;27;97567;-67
2023/08/04 03:01:48;;;;;;;7.35;2.67;;;;;;;21.76;77.79;100350.94;5054937;27;99221;-68
2023/08/04 03:04:15;;;;;;;6.30;2.33;;;;;;;21.82;77.31;100357.63;5045705;27;98970;-68
2023/08/04 03:06:42;;;;;;;8.65;1.95;;;;;;;21.56;78.22;100356.38;5049066;27;100912;-69
2023/08/04 03:09:11;;;;;;;7.70;2.03;;;;;;;21.72;77.78;100360.28;5058217;27;98892;-68
2023/08/04 03:11:38;;;;;;;12.35;2.58;;;;;;;21.60;77.91;100366.72;5052023;27;98906;-69
2023/08/04 03:14:04;;;;;;;8.15;2.47;;;;;;;21.59;78.33;100364.19;5050665;27;98152;-67
2023/08/04 03:16:31;;;;;;;5.88;2.05;;;;;;;21.78;77.21;100361.56;5050225;27;96776;-67
2023/08/04 03:18:57;;;;;;;11.10;3.08;;;;;;;21.34;79.27;100363.59;5047064;27;98719;-67
2023/08/04 03:21:24;;;;;;;12.20;2.40;;;;;;;21.61;78.36;100363.03;5051696;27;98837;-67
2023/08/04 03:23:51;;;;;;;15.07;2.35;;;;;;;21.49;78.17;100369.50;5054844;27;98937;-67
2023/08/04 03:26:17;;;;;;;9.98;2.63;;;;;;;21.46;77.78;100367.09;5046923;27;98429;-68
2023/08/04 03:28:44;;;;;;;5.07;2.15;;;;;;;21.50;78.20;100368.50;5052191;27;96814;-68
2023/08/04 03:31:10;;;;;;;10.38;3.05;;;;;;;21.40;78.14;100375.66;5047019;27;99289;-69
2023/08/04 03:33:36;;;;;;;4.97;2.20;;;;;;;21.36;78.41;100368.84;5053554;27;98975;-68
2023/08/04 03:36:03;;;;;;;10.45;2.88;;;;;;;21.25;78.80;100371.63;5046099;27;98218;-68
2023/08/04 03:38:31;;;;;;;6.10;2.47;;;;;;;21.40;78.57;100381.03;5052296;27;101950;-68
2023/08/04 03:40:57;;;;;;;9.90;2.70;;;;;;;21.30;78.51;100385.50;5057094;27;99184;-68
2023/08/04 03:43:23;;;;;;;9.40;2.63;;;;;;;21.28;78.32;100393.69;5055026;27;98914;-67
2023/08/04 03:45:50;;;;;;;7.95;2.40;;;;;;;21.32;78.18;100395.16;5052616;27;96823;-67
2023/08/04 03:48:16;;;;;;;11.75;3.30;;;;;;;21.42;77.45;100390.66;5054681;27;96850;-68
2023/08/04 03:50:44;;;;;;;10.65;2.80;;;;;;;21.02;79.62;100393.19;5051898;27;98858;-67
2023/08/04 03:53:10;;;;;;;9.57;2.63;;;;;;;21.03;79.02;100388.66;5056879;27;99250;-67
2023/08/04 03:55:38;;;;;;;10.88;3.20;;;;;;;21.13;78.60;100399.50;5053716;27;97102;-67
2023/08/04 03:58:04;;;;;;;12.63;3.67;;;;;;;21.07;79.16;100403.53;5040647;27;97620;-67
2023/08/04 04:00:31;;;;;;;11.27;3.10;;;;;;;20.92;79.82;100412.91;5049178;27;98902;-67
2023/08/04 04:02:57;;;;;;;6.40;3.08;;;;;;;20.71;81.09;100410.16;5045967;27;98382;-67
2023/08/04 04:05:23;;;;;;;11.35;2.88;;;;;;;20.84;80.66;100418.91;5052126;27;98593;-67
2023/08/04 04:07:50;;;;;;;12.32;3.55;;;;;;;20.90;80.01;100404.97;5051105;27;96793;-68
2023/08/04 04:10:16;;;;;;;12.00;3.63;;;;;;;20.99;79.20;100400.66;5046991;27;99420;-68
2023/08/04 04:12:44;;;;;;;9.02;3.08;;;;;;;21.00;79.22;100413.13;5043123;27;98848;-68
2023/08/04 04:15:11;;;;;;;8.80;3.53;;;;;;;21.09;78.87;100415.88;5040900;27;97085;-68
2023/08/04 04:17:38;;;;;;;10.15;3.13;;;;;;;21.11;78.66;100406.81;5048201;27;96888;-66
2023/08/04 04:20:05;;;;;;;9.20;3.40;;;;;;;21.26;77.20;100416.31;5052213;27;96995;-65
2023/08/04 04:22:33;;;;;;;13.75;3.15;;;;;;;21.23;77.41;100421.94;5045802;27;98921;-65
2023/08/04 04:25:00;;;;;;;7.57;3.60;;;;;;;21.26;77.21;100421.69;5054191;27;96810;-65
2023/08/04 04:27:26;;;;;;;10.35;3.38;;;;;;;21.14;77.52;100419.97;5045587;27;96942;-65
2023/08/04 04:29:54;;;;;;;10.20;3.40;;;;;;;21.28;76.95;100433.13;5048338;27;97731;-65
2023/08/04 04:32:20;;;;;;;11.00;3.33;;;;;;;21.14;77.44;100428.91;5048756;27;99031;-65
2023/08/04 04:34:47;;;;;;;9.50;3.38;;;;;;;21.04;77.45;100436.91;5049268;27;97371;-65
2023/08/04 04:37:13;;;;;;;8.68;2.90;;;;;;;21.09;77.58;100442.72;5051399;27;99736;-65
2023/08/04 04:39:39;;;;;;;12.80;3.10;;;;;;;21.36;76.71;100453.00;5051374;27;99843;-65
2023/08/04 04:42:06;;;;;;;12.38;3.75;;;;;;;21.48;75.71;100459.19;5045463;27;99147;-65
2023/08/04 04:44:33;;;;;;;9.35;3.33;;;;;;;21.45;76.03;100464.84;5047810;27;97745;-66
2023/08/04 04:47:00;;;;;;;8.40;3.03;;;;;;;21.58;74.97;100468.19;5049943;27;98375;-67
2023/08/04 04:49:27;;;;;;;15.60;3.20;;;;;;;21.48;74.88;100475.31;5047965;27;99433;-66
2023/08/04 04:51:53;;;;;;;10.93;3.50;;;;;;;21.75;74.66;100472.94;5049489;27;97828;-65
2023/08/04 04:54:19;;;;;;;16.52;3.47;;;;;;;21.85;72.66;100479.25;5050414;27;96906;-65
2023/08/04 04:56:46;;;;;;;9.52;3.33;;;;;;;21.79;72.75;100469.00;5043795;27;96858;-66
2023/08/04 04:59:13;;;;;;;11.65;2.72;;;;;;;21.87;72.19;100479.94;5046758;27;99380;-65
2023/08/04 05:01:39;;;;;;;8.25;3.13;;;;;;;22.11;71.40;100481.53;5055158;27;98976;-66
2023/08/04 05:04:07;;;;;;;7.55;2.58;;;;;;;21.97;71.85;100495.34;5047399;27;97032;-66
2023/08/04 05:06:33;;;;;;;7.28;2.75;;;;;;;22.03;71.21;100492.09;5046818;27;97739;-67
2023/08/04 05:08:59;;;;;;;9.23;3.00;;;;;;;22.31;70.29;100496.78;5049701;27;98944;-66
2023/08/04 05:11:26;;;;;;;8.80;2.85;;;;;;;22.33;69.66;100494.78;5043885;27;98715;-66
2023/08/04 05:13:52;;;;;;;12.32;2.92;;;;;;;22.23;69.46;100497.47;5049670;27;96834;-66
2023/08/04 05:16:18;;;;;;;10.13;2.90;;;;;;;21.95;70.84;100499.97;5054239;27;96902;-65
2023/08/04 05:18:45;;;;;;;8.65;2.90;;;;;;;21.91;70.73;100501.22;5045150;27;98935;-66
2023/08/04 05:21:12;;;;;;;8.68;2.70;;;;;;;21.88;70.56;100500.50;5052823;27;98867;-65
2023/08/04 05:23:39;;;;;;;10.38;2.50;;;;;;;22.08;69.55;100503.31;5051779;27;96777;-65
2023/08/04 05:26:05;;;;;;;17.55;3.90;;;;;;;22.31;68.98;100512.09;5052228;27;97770;-65
2023/08/04 05:28:32;;;;;;;15.07;3.13;;;;;;;22.34;69.01;100520.72;5043347;27;98855;-65
2023/08/04 05:31:00;;;;;;;14.63;3.40;;;;;;;22.33;68.61;100520.84;5049878;27;100998;-65
2023/08/04 05:33:27;;;;;;;13.48;2.95;;;;;;;21.90;69.63;100519.19;5048823;27;96971;-66
2023/08/04 05:35:54;;;;;;;14.90;3.33;;;;;;;21.96;69.57;100518.69;5047876;27;98789;-65
2023/08/04 05:38:22;;;;;;;12.07;2.85;;;;;;;22.34;68.98;100523.41;5051272;27;99601;-65
2023/08/04 05:40:49;;;;;;;12.85;2.78;;;;;;;22.32;68.39;100528.06;5047083;27;100400;-66
2023/08/04 05:43:16;;;;;;;7.63;3.00;;;;;;;22.54;67.82;100525.19;5048468;27;97451;-65
2023/08/04 05:45:46;;;;;;;13.35;3.10;;;;;;;22.64;67.39;100525.25;5053499;27;96972;-65
2023/08/04 05:48:13;;;;;;;10.57;3.33;;;;;;;22.72;67.35;100532.63;5056781;27;98938;-65
2023/08/04 05:50:39;;;;;;;7.82;2.67;;;;;;;22.63;67.28;100543.25;5051473;27;101295;-65
2023/08/04 05:53:06;;;;;;;15.43;3.17;;;;;;;22.47;67.03;100542.88;5051696;27;96922;-68
2023/08/04 05:55:34;;;;;;;10.20;2.58;;;;;;;22.35;67.66;100552.03;5052544;27;96919;-66
2023/08/04 05:58:01;;;;;;;13.40;2.90;;;;;;;22.71;66.73;100550.63;5047667;27;99103;-66
2023/08/04 06:00:29;;;;;;;10.05;2.75;;;;;;;22.46;67.46;100553.78;5045501;27;98976;-66
2023/08/04 06:02:56;;;;;;;9.98;2.10;;;;;;;22.63;67.17;100558.56;5053345;27;99982;-65
2023/08/04 06:05:24;;;;;;;10.82;2.60;;;;;;;22.86;66.58;100548.44;5052456;27;96794;-65
2023/08/04 06:07:51;;;;;;;12.55;2.33;;;;;;;22.87;65.78;100555.53;5051610;27;99930;-65
2023/08/04 06:10:19;;;;;;;10.18;3.05;;;;;;;22.66;66.29;100567.19;5055413;27;98569;-66
2023/08/04 06:12:47;;;;;;;10.38;2.55;;;;;;;23.02;65.51;100573.03;5050739;27;97679;-66
2023/08/04 06:15:14;;;;;;;13.05;3.53;;;;;;;23.29;64.68;100573.22;5051400;27;97840;-66
2023/08/04 06:17:41;;;;;;;9.60;2.63;;;;;;;23.35;63.11;100572.66;5035175;27;99367;-65
2023/08/04 06:20:08;;;;;;;21.27;3.40;;;;;;;23.52;62.68;100576.53;5041390;27;99631;-65
2023/08/04 06:22:35;;;;;;;9.60;2.88;;;;;;;23.16;63.64;100577.16;5044555;27;97092;-65
2023/08/04 06:25:02;;;;;;;8.60;2.92;;;;;;;23.55;62.10;100581.66;5041616;27;96944;-65
2023/08/04 06:27:28;;;;;;;8.27;2.30;;;;;;;23.63;62.30;100586.34;5043074;27;97763;-66
2023/08/04 06:29:58;;;;;;;9.35;2.58;;;;;;;23.49;62.48;100594.84;5055112;27;98850;-65
2023/08/04 06:32:25;;;;;;;9.77;2.50;;;;;;;23.10;63.04;100591.19;5059772;27;96816;-65
2023/08/04 06:34:51;;;;;;;11.15;3.35;;;;;;;23.25;63.42;100596.03;5049109;27;97428;-65
2023/08/04 06:37:18;;;;;;;12.07;2.95;;;;;;;23.17;62.69;100598.56;5053965;27;98979;-65
2023/08/04 06:39:44;;;;;;;11.95;3.38;;;;;;;23.25;62.91;100605.97;5054428;27;99341;-64
2023/08/04 06:42:10;;;;;;;6.93;2.40;;;;;;;23.45;61.15;100607.72;5041311;27;96889;-65
2023/08/04 06:44:37;;;;;;;10.45;2.38;;;;;;;23.08;62.93;100610.19;5044384;27;97552;-65
2023/08/04 06:47:05;;;;;;;7.28;2.80;;;;;;;22.93;63.34;100617.81;5048203;27;98874;-65
2023/08/04 06:49:32;;;;;;;7.35;2.60;;;;;;;23.39;62.42;100630.69;5049499;27;100021;-65
2023/08/04 06:51:58;;;;;;;8.63;2.42;;;;;;;23.73;61.05;100625.78;5050702;27;97820;-66
2023/08/04 06:54:24;;;;;;;12.65;2.50;;;;;;;24.06;59.92;100629.06;5049696;27;97925;-65
2023/08/04 06:56:51;;;;;;;8.82;2.47;;;;;;;24.17;58.88;100627.03;5050536;27;101431;-65
2023/08/04 06:59:17;;;;;;;9.88;2.75;;;;;;;23.84;60.44;100638.28;5047067;27;97716;-64
2023/08/04 07:01:43;;;;;;;9.48;2.72;;;;;;;23.62;61.25;100635.88;5044293;27;96993;-65
2023/08/04 07:04:11;;;;;;;8.80;2.67;;;;;;;23.84;60.58;100632.88;5044835;27;96857;-66
2023/08/04 07:06:38;;;;;;;10.68;2.53;;;;;;;24.06;60.30;100640.69;5046040;27;99237;-65
2023/08/04 07:09:04;;;;;;;11.82;2.70;;;;;;;24.09;59.64;100629.59;5057621;27;99332;-65
2023/08/04 07:11:30;;;;;;;9.57;2.15;;;;;;;24.23;58.47;100640.00;5043051;27;97775;-64
2023/08/04 07:13:57;;;;;;;12.60;2.63;;;;;;;24.79;56.81;100641.00;5047108;27;96941;-66
2023/08/04 07:16:23;;;;;;;8.95;2.45;;;;;;;25.01;55.92;100633.38;5045337;27;99252;-65
2023/08/04 07:18:50;;;;;;;10.65;2.80;;;;;;;24.87;55.90;100641.97;5053820;27;99214;-66
2023/08/04 07:21:18;;;;;;;8.57;2.00;;;;;;;24.86;55.66;100640.25;5048988;27;97307;-65
2023/08/04 07:23:44;;;;;;;7.68;2.13;;;;;;;24.61;57.03;100654.44;5049446;27;97658;-66
2023/08/04 07:26:11;;;;;;;8.30;2.13;;;;;;;24.89;55.46;100656.19;5053716;27;99142;-66
2023/08/04 07:28:37;;;;;;;7.47;2.60;;;;;;;24.47;55.73;100660.28;5048851;27;98149;-66
2023/08/04 07:31:04;;;;;;;7.63;2.22;;;;;;;23.93;57.23;100664.44;5053882;27;99417;-64
2023/08/04 07:33:30;;;;;;;11.05;2.58;;;;;;;23.74;58.28;100669.81;5051616;27;98883;-66
2023/08/04 07:35:57;;;;;;;7.88;1.90;;;;;;;23.72;58.79;100664.56;5051447;27;99198;-65
2023/08/04 07:38:27;;;;;;;6.88;2.15;;;;;;;24.11;57.32;100673.50;5043424;27;101542;-64
2023/08/04 07:40:53;;;;;;;8.18;2.42;;;;;;;24.41;56.72;100671.69;5042000;27;96812;-66
2023/08/04 07:43:19;;;;;;;10.10;2.40;;;;;;;24.39;55.92;100666.41;5050665;27;97640;-66
2023/08/04 07:45:46;;;;;;;8.20;2.67;;;;;;;24.29;55.59;100673.66;5047843;27;97860;-66
2023/08/04 07:48:12;;;;;;;5.88;2.05;;;;;;;24.52;55.67;100676.91;5040655;27;98974;-66
2023/08/04 07:50:40;;;;;;;11.95;2.53;;;;;;;24.31;56.11;100678.91;5037644;27;98567;-66
2023/08/04 07:53:07;;;;;;;11.10;2.75;;;;;;;24.22;56.13;100677.94;5043532;27;96958;-65
2023/08/04 07:55:36;;;;;;;9.15;2.17;;;;;;;24.69;55.20;100678.84;5040349;27;99502;-65
2023/08/04 07:58:03;;;;;;;9.00;2.53;;;;;;;25.44;54.34;100677.00;5042929;27;98799;-64
2023/08/04 08:00:29;;;;;;;8.18;2.15;;;;;;;25.79;52.11;100683.34;5041920;27;98868;-64
2023/08/04 08:02:55;;;;;;;7.72;2.05;;;;;;;26.16;50.60;100682.31;5025652;27;98799;-65
2023/08/04 08:05:22;;;;;;;8.40;2.55;;;;;;;26.33;49.81;100689.59;5038650;27;99254;-65
2023/08/04 08:07:48;;;;;;;11.48;1.75;;;;;;;25.91;50.30;100696.66;5040371;27;98810;-65
2023/08/04 08:10:15;;;;;;;7.20;1.73;;;;;;;25.55;50.38;100696.56;5042707;27;96835;-64
2023/08/04 08:12:42;;;;;;;6.13;2.00;;;;;;;25.47;50.67;100691.03;5037662;27;98739;-65
2023/08/04 08:15:09;;;;;;;8.43;2.08;;;;;;;25.43;50.53;100703.19;5035298;27;98519;-64
2023/08/04 08:17:37;;;;;;;10.63;2.05;;;;;;;25.18;51.73;100703.88;5042075;27;99664;-64
2023/08/04 08:20:04;;;;;;;7.97;2.60;;;;;;;25.29;51.46;100696.41;5035634;27;97160;-64
2023/08/04 08:22:31;;;;;;;8.75;2.05;;;;;;;25.11;52.33;100697.38;5036574;27;97993;-65
2023/08/04 08:24:56;;;;;;;9.50;2.55;;;;;;;25.47;51.70;100698.34;5037107;27;98990;-65
2023/08/04 08:27:23;;;;;;;5.65;1.70;;;;;;;25.60;51.17;100704.28;5050771;27;101756;-65
2023/08/04 08:29:56;;;;;;;7.40;1.80;;;;;;;25.95;49.68;100708.84;5044964;27;96845;-63
2023/08/04 08:32:23;;;;;;;10.68;2.22;;;;;;;25.85;50.14;100716.22;5043516;27;98319;-63
2023/08/04 08:34:50;;;;;;;5.80;2.22;;;;;;;26.06;49.59;100714.03;5045477;27;97802;-64
2023/08/04 08:37:16;;;;;;;6.90;2.20;;;;;;;25.88;50.29;100724.00;5047646;27;99377;-64
2023/08/04 08:39:42;;;;;;;6.03;2.25;;;;;;;25.84;50.38;100722.63;5042228;27;97563;-64
2023/08/04 08:42:09;;;;;;;6.32;2.15;;;;;;;25.93;50.33;100727.13;5040724;27;97474;-64
2023/08/04 08:44:35;;;;;;;7.15;2.28;;;;;;;25.75;51.00;100733.34;5045866;27;99281;-64
2023/08/04 08:47:03;;;;;;;18.67;2.50;;;;;;;25.90;50.59;100725.56;5037266;27;101256;-64
2023/08/04 08:49:34;;;;;;;7.47;3.22;;;;;;;25.20;51.08;100734.34;5043053;27;97687;-64
2023/08/04 08:52:01;;;;;;;7.07;2.33;;;;;;;25.26;51.88;100731.91;5036018;27;98959;-64
2023/08/04 08:54:28;;;;;;;5.85;1.95;;;;;;;25.16;51.53;100739.19;5046336;27;99048;-64
2023/08/04 08:56:55;;;;;;;3.72;1.70;;;;;;;25.10;51.53;100739.78;5046706;27;99424;-64
2023/08/04 08:59:22;;;;;;;5.75;2.03;;;;;;;25.24;51.81;100743.84;5039141;27;97412;-65
2023/08/04 09:01:49;;;;;;;7.80;3.00;;;;;;;25.64;50.20;100738.97;5041777;27;97548;-65
2023/08/04 09:04:17;;;;;;;7.63;2.92;;;;;;;26.19;48.66;100739.72;5045593;27;99959;-65
2023/08/04 09:06:43;;;;;;;7.72;2.03;;;;;;;26.20;48.01;100738.72;5051098;27;99146;-67
2023/08/04 09:09:09;;;;;;;8.70;2.50;;;;;;;25.98;48.00;100730.22;5041858;27;99251;-64
2023/08/04 09:11:36;;;;;;;5.97;2.85;;;;;;;26.19;47.40;100737.00;5045314;27;97414;-64
2023/08/04 09:14:02;;;;;;;6.07;2.17;;;;;;;25.40;49.54;100744.06;5046637;27;98947;-65
2023/08/04 09:16:33;;;;;;;4.93;1.65;;;;;;;25.56;50.51;100746.97;5049005;27;99913;-66
2023/08/04 09:19:03;;;;;;;4.03;1.90;;;;;;;25.99;49.52;100746.28;5047511;27;97892;-65
2023/08/04 09:21:31;;;;;;;6.13;2.13;;;;;;;25.94;49.40;100755.88;5044402;27;97433;-65
2023/08/04 09:23:58;;;;;;;7.85;1.98;;;;;;;26.15;48.92;100759.16;5043666;27;99510;-65
2023/08/04 09:26:25;;;;;;;7.05;2.88;;;;;;;26.49;47.81;100753.91;5043790;27;99241;-65
2023/08/04 09:29:04;;;;;;;3.92;1.60;;;;;;;26.47;45.32;100764.91;5045631;27;101362;-65
2023/08/04 09:31:35;;;;;;;6.07;1.77;;;;;;;26.59;44.47;100765.50;5041165;27;97620;-65
2023/08/04 09:34:05;;;;;;;4.22;1.55;;;;;;;26.58;45.47;100767.34;5047033;27;99046;-65
2023/08/04 09:36:39;;;;;;;7.15;1.83;;;;;;;26.41;46.27;100767.38;5044826;27;98945;-65
2023/08/04 09:39:05;;;;;;;7.00;2.55;;;;;;;26.51;46.07;100766.31;5049424;27;96834;-65
2023/08/04 09:41:34;;;;;;;7.40;2.92;;;;;;;26.73;45.57;100764.09;5045500;27;97871;-65
2023/08/04 09:44:05;;;;;;;7.57;1.70;;;;;;;27.07;44.89;100770.47;5050649;27;101815;-65
2023/08/04 09:46:31;;;;;;;7.32;2.10;;;;;;;27.26;44.67;100764.81;5044844;27;98670;-65
2023/08/04 09:48:59;;;;;;;3.95;1.77;;;;;;;27.98;44.01;100770.72;5040213;27;97975;-65
2023/08/04 09:51:26;;;;;;;8.02;1.83;;;;;;;27.82;42.95;100765.25;5046807;27;98883;-65
2023/08/04 09:53:55;;;;;;;5.95;1.80;;;;;;;27.90;42.33;100762.53;5049347;27;99165;-66
2023/08/04 09:56:25;;;;;;;6.38;2.80;;;;;;;28.36;40.88;100756.53;5051493;27;99387;-65
2023/08/04 09:58:51;;;;;;;5.75;1.65;;;;;;;27.81;42.24;100758.97;5054300;27;97024;-66
2023/08/04 10:01:18;;;;;;;7.03;1.55;;;;;;;27.35;43.53;100765.72;5048750;27;96789;-65
2023/08/04 10:03:50;;;;;;;6.20;1.75;;;;;;;26.65;44.57;100759.44;5050874;27;99328;-65
2023/08/04 10:06:17;;;;;;;7.50;2.03;;;;;;;26.27;46.36;100768.78;5055686;27;98937;-65
2023/08/04 10:08:43;;;;;;;7.15;1.80;;;;;;;26.04;46.49;100768.38;5055311;27;96841;-66
2023/08/04 10:11:11;;;;;;;7.53;1.83;;;;;;;25.68;48.30;100772.00;5041219;27;96808;-65
2023/08/04 10:13:40;;;;;;;4.75;1.58;;;;;;;25.41;50.63;100772.81;5046516;27;99324;-64
2023/08/04 10:16:09;;;;;;;4.78;1.80;;;;;;;24.65;53.99;100793.63;5049003;27;98797;-64
2023/08/04 10:18:57;;;;;;;4.20;1.50;;;;;;;24.55;55.71;100799.00;5048269;27;97378;-64
2023/08/04 10:21:27;;;;;;;9.43;2.08;;;;;;;24.63;57.22;100792.91;5042038;27;97265;-63
2023/08/04 10:23:54;;;;;;;6.38;1.88;;;;;;;24.62;58.28;100793.88;5045356;27;98995;-63
2023/08/04 10:26:22;;;;;;;9.23;2.08;;;;;;;24.76;59.42;100796.16;5046901;27;97489;-64
2023/08/04 10:29:02;;;;;;;6.13;1.90;;;;;;;24.80;59.05;100796.72;5050510;27;97196;-65
2023/08/04 10:31:51;;;;;;;7.25;2.30;;;;;;;24.98;58.69;100795.03;5038032;27;97275;-64
2023/08/04 10:34:25;;;;;;;6.47;2.05;;;;;;;24.97;59.21;100804.13;5044728;27;99364;-64
2023/08/04 10:37:00;;;;;;;8.30;1.98;;;;;;;25.15;60.44;100796.09;5043285;27;99543;-67
2023/08/04 10:39:28;;;;;;;11.90;2.07;;;;;;;25.33;59.56;100794.34;5050458;27;97625;-65
2023/08/04 10:41:56;;;;;;;4.85;1.90;;;;;;;25.82;58.21;100790.44;5048145;27;96818;-64
2023/08/04 10:44:25;;;;;;;6.25;2.30;;;;;;;26.04;56.28;100798.16;5054063;27;100296;-65
2023/08/04 10:46:52;;;;;;;3.70;1.80;;;;;;;26.55;52.63;100797.50;5048377;27;102168;-65
2023/08/04 10:49:19;;;;;;;4.05;1.58;;;;;;;26.84;51.33;100794.53;5043489;27;96947;-64
2023/08/04 10:51:46;;;;;;;5.82;2.13;;;;;;;26.74;49.65;100785.63;5053850;27;96830;-64
2023/08/04 10:54:12;;;;;;;6.13;1.60;;;;;;;26.73;48.17;100783.91;5039376;27;99045;-64
2023/08/04 10:56:39;;;;;;;5.38;2.85;;;;;;;26.82;48.72;100787.53;5041248;27;98670;-64
2023/08/04 10:59:09;;;;;;;15.48;2.38;;;;;;;27.21;48.31;100780.72;5048529;27;97188;-64
2023/08/04 11:01:35;;;;;;;9.00;1.90;;;;;;;27.22;47.46;100777.00;5048334;27;97869;-64
2023/08/04 11:04:01;;;;;;;6.05;2.00;;;;;;;27.46;46.95;100781.69;5050151;27;98922;-64
2023/08/04 11:06:28;;;;;;;7.63;2.17;;;;;;;27.69;45.87;100776.59;5043340;27;98833;-65
2023/08/04 11:08:54;;;;;;;4.25;1.42;;;;;;;27.97;41.94;100774.44;5054829;27;96925;-67
2023/08/04 11:11:21;;;;;;;4.65;1.23;;;;;;;27.63;40.62;100766.38;5046890;27;96993;-65
2023/08/04 11:13:48;;;;;;;7.28;3.63;;;;;;;27.86;40.69;100775.59;5054852;27;99098;-65
2023/08/04 11:16:18;;;;;;;4.72;2.83;;;;;;;27.18;41.44;100767.47;5046083;27;98840;-65
2023/08/04 11:18:45;;;;;;;2.92;1.20;;;;;;;26.89;41.22;100758.81;5055728;27;101223;-65
2023/08/04 11:21:11;;;;;;;6.85;1.80;;;;;;;26.37;42.74;100752.47;5050285;27;96922;-64